Wednesday, April 1, 2015, 11:07 PM EDT

KMDT, Harrisburg International Airport

Location: Middletown, PA, United States Lat: 40.2
Local Time: 11:07 PM EDT ( 3:07 GMT) Lon: -76.767
Time Zone: US/Eastern Elev: 308 ft

Show me the last for .
Show Decoded

2015-04-01 21:56 METAR KMDT 020156Z 00000KT 10SM CLR 06/M02 A3020 =
2015-04-01 20:56 METAR KMDT 020056Z 16003KT 10SM CLR 08/M01 A3019 RMK AO2 SLP227 T00781006 =
2015-04-01 19:56 METAR KMDT 012356Z 35004KT 10SM CLR 09/M03 A3017 RMK AO2 SLP220 T00941028 10133
                 20094 53012 =
2015-04-01 18:56 METAR KMDT 012256Z 34009KT 10SM FEW065 11/M03 A3016 =
2015-04-01 17:56 METAR KMDT 012156Z 33012KT 10SM FEW065 12/M03 A3015 RMK AO2 SLP210 T01221028 =
2015-04-01 16:56 METAR KMDT 012056Z 33016G23KT 10SM SCT065 13/M03 A3014 RMK AO2 SLP208 T01281028
                 53001 =
2015-04-01 15:56 METAR KMDT 011956Z 32017G23KT 10SM SCT065 SCT090 13/M04 A3012 RMK AO2 SLP203
                 T01281044 =
2015-04-01 14:56 METAR KMDT 011856Z 32018G23KT 10SM SCT065 12/M04 A3013 RMK AO2 SLP204 T01221044
                 =
2015-04-01 13:56 METAR KMDT 011756Z 34009G19KT 10SM FEW060 FEW150 11/M06 A3013 RMK AO2 SLP205
                 T01111056 10111 21017 $ =
2015-04-01 12:56 METAR KMDT 011656Z 28007KT 10SM CLR 09/M04 A3013 =
2015-04-01 12:01 METAR KMDT 011601Z 30006G14KT 10SM FEW040 06/M02 A3014 RMK AO2 T00611022 $ =
2015-04-01 11:56 METAR KMDT 011556Z 17012KT 10SM FEW040 06/M02 A3014 RMK AO2 WSHFT 1515 SLP210
                 T00611022 $ =
2015-04-01 11:35 METAR KMDT 011535Z 17012KT 10SM SCT040 06/M02 A3014 RMK AO2 WSHFT 1515 T00611022
                 $ =
2015-04-01 09:56 METAR KMDT 011356Z 31010G17KT 10SM FEW040 06/M02 A3012 =
2015-04-01 08:56 METAR KMDT 011256Z 29004KT 10SM FEW150 04/M02 A3009 =
2015-04-01 07:56 METAR KMDT 011156Z 31004KT 10SM FEW150 02/M02 A3007 =
2015-04-01 06:56 METAR KMDT 011056Z 32005KT 10SM FEW150 M01/M05 A3003 =
2015-04-01 05:56 METAR KMDT 010956Z 33007KT 10SM CLR 01/M04 A3000 =
2015-04-01 04:56 METAR KMDT 010856Z 32007KT 10SM FEW120 01/M04 A2996 RMK AO2 SLP149 T00111039
                 53008 $ =
2015-04-01 03:56 METAR KMDT 010756Z 34005KT 10SM FEW040 01/M04 A2993 =
2015-04-01 02:56 METAR KMDT 010656Z 31003KT 10SM FEW040 01/M03 A2994 RMK AO2 SLP142 T00111033 $ =
2015-04-01 01:56 METAR KMDT 010556Z 34007KT 10SM FEW030 02/M03 A2994 =
2015-04-01 00:56 METAR KMDT 010456Z 32005KT 10SM FEW030 02/M03 A2994 RMK AO2 SLP142 T00221028
                 401221006 $ =
2015-03-31 23:56 METAR KMDT 010356Z 31006KT 10SM BKN030 03/M01 A2993 RMK AO2 SLP139 T00331011 $ =

Support USWX by starting your Amazon purchase here.